Terminal Aerodrome Forecast
Issued by NWS Louisville, KY

Home | Current Version | Previous Version | Text Only | Print | Product List | Glossary On
Versions: 1 2 3 4 5 6 7 8 9 10 11 12 13 14 15 16 17 18 19 20 21
000
FTUS43 KLMK 300200 AAA
TAFSDF
TAF AMD
KSDF 300209Z 3002/3106 VRB04KT P6SM SCT030 BKN150
     FM300700 33004KT 6SM BR SCT025 BKN250
     FM301200 36004KT P6SM FEW030
     FM301600 02009KT P6SM SKC
     FM310000 VRB03KT P6SM SKC=

USA.gov is the U.S. government's official web portal to all federal, state and local government web resources and services.